Time;durP1;ratioP1;P1;durP2;ratioP2;P2;SDS_P1;SDS_P2;PMS_P1;PMS_P2;Temp;Humidity;BMP_temperature;BMP_pressure;BME280_temperature;BME280_humidity;BME280_pressure;Samples;Min_cycle;Max_cycle;Signal;HPM_P1;HPM_P2
2021/11/27 00:02:09;;;;;;;18.65;6.07;;;;;;;2.60;89.50;99336.06;6304929;22;20018;-72
2021/11/27 00:04:35;;;;;;;5.25;4.90;;;;;;;2.60;89.75;99336.91;6332908;22;20072;-73
2021/11/27 00:07:01;;;;;;;3.30;3.20;;;;;;;2.66;89.29;99341.03;6325908;22;20018;-73
2021/11/27 00:09:27;;;;;;;5.82;5.45;;;;;;;2.66;89.24;99346.16;6333042;22;20734;-72
2021/11/27 00:11:53;;;;;;;10.02;8.13;;;;;;;2.68;89.40;99349.56;6305286;22;20472;-71
2021/11/27 00:14:20;;;;;;;5.32;2.40;;;;;;;2.70;88.93;99347.75;6332352;22;20019;-73
2021/11/27 00:16:46;;;;;;;3.20;3.10;;;;;;;2.70;88.75;99341.78;6331133;22;20011;-71
2021/11/27 00:19:12;;;;;;;2.88;2.78;;;;;;;2.71;88.65;99346.88;6332867;22;20031;-72
2021/11/27 00:21:39;;;;;;;5.03;4.68;;;;;;;2.67;88.34;99337.56;6332309;22;20369;-72
2021/11/27 00:24:05;;;;;;;3.08;2.97;;;;;;;2.71;88.50;99339.16;6332662;22;20014;-74
2021/11/27 00:26:31;;;;;;;1.92;1.90;;;;;;;2.69;88.64;99335.75;6332502;22;20015;-73
2021/11/27 00:28:57;;;;;;;2.38;2.28;;;;;;;2.70;88.21;99332.31;6332693;22;20366;-73
2021/11/27 00:31:24;;;;;;;4.20;4.00;;;;;;;2.73;88.10;99332.22;6332369;22;20019;-71
2021/11/27 00:33:50;;;;;;;2.92;2.83;;;;;;;2.70;87.90;99326.31;6332506;22;20019;-69
2021/11/27 00:36:17;;;;;;;0.95;0.95;;;;;;;2.71;88.12;99315.13;6332321;22;20022;-71
2021/11/27 00:38:44;;;;;;;1.02;1.02;;;;;;;2.69;88.50;99311.72;6331079;22;20088;-71
2021/11/27 00:41:11;;;;;;;2.20;2.10;;;;;;;2.69;88.03;99307.44;6332202;22;20050;-72
2021/11/27 00:43:37;;;;;;;1.67;1.58;;;;;;;2.65;87.70;99302.44;6332297;22;20022;-71
2021/11/27 00:46:04;;;;;;;2.58;2.38;;;;;;;2.61;88.13;99281.94;6330921;22;20150;-69
2021/11/27 00:48:32;;;;;;;2.70;2.50;;;;;;;2.68;88.03;99298.03;6332250;22;20076;-71
2021/11/27 00:51:01;;;;;;;5.50;5.10;;;;;;;2.69;87.99;99304.84;6332710;22;20090;-71
2021/11/27 00:53:27;;;;;;;8.52;5.25;;;;;;;2.66;87.88;99304.94;6332516;22;20023;-71
2021/11/27 00:55:53;;;;;;;4.22;3.83;;;;;;;2.63;88.17;99305.03;6330479;22;20484;-72
2021/11/27 00:58:19;;;;;;;5.25;4.78;;;;;;;2.65;87.71;99302.44;6332457;22;20019;-71
2021/11/27 01:00:51;;;;;;;4.60;4.32;;;;;;;2.64;87.87;99306.75;6305479;22;20349;-71
2021/11/27 01:03:18;;;;;;;5.20;4.72;;;;;;;2.62;87.88;99304.19;6332775;22;20385;-71
2021/11/27 01:05:44;;;;;;;1.25;1.25;;;;;;;2.59;88.10;99295.72;6330851;22;20501;-73
2021/11/27 01:08:11;;;;;;;2.78;2.58;;;;;;;2.62;88.39;99296.47;6332991;22;20025;-72
2021/11/27 01:10:52;;;;;;;2.40;2.38;;;;;;;2.59;87.88;99282.84;6330434;22;20046;-71
2021/11/27 01:13:18;;;;;;;;;;;;;;;2.62;88.20;99282.75;6333310;22;20021;-72
2021/11/27 01:15:44;;;;;;;1.15;1.15;;;;;;;2.63;88.01;99277.56;6333844;22;19954;-70
2021/11/27 01:18:11;;;;;;;0.65;0.65;;;;;;;2.66;87.97;99274.03;6306499;22;20022;-72
2021/11/27 01:20:43;;;;;;;2.38;2.28;;;;;;;2.67;87.32;99280.88;6334123;22;20014;-71
2021/11/27 01:23:09;;;;;;;6.10;2.40;;;;;;;2.67;87.49;99288.59;6306466;22;20029;-71
2021/11/27 01:25:35;;;;;;;1.48;1.48;;;;;;;2.66;87.72;99286.06;6280447;22;20047;-71
2021/11/27 01:28:02;;;;;;;2.65;2.45;;;;;;;2.67;87.59;99304.06;6306770;22;20480;-72
2021/11/27 01:30:29;;;;;;;0.73;0.73;;;;;;;2.60;87.35;99300.84;6306302;22;20064;-70
2021/11/27 01:32:55;;;;;;;2.33;2.08;;;;;;;2.61;87.54;99299.09;6332079;22;20109;-71
2021/11/27 01:35:21;;;;;;;4.72;4.35;;;;;;;2.60;87.54;99310.28;6333914;22;20022;-70
2021/11/27 01:37:47;;;;;;;1.73;1.73;;;;;;;2.57;87.92;99306.09;6332167;22;20019;-71
2021/11/27 01:40:19;;;;;;;1.85;1.77;;;;;;;2.57;87.87;99305.25;6332229;22;20025;-71
2021/11/27 01:42:45;;;;;;;8.02;5.72;;;;;;;2.61;87.48;99327.44;6333385;22;20450;-72
2021/11/27 01:45:12;;;;;;;7.72;5.28;;;;;;;2.57;87.90;99323.28;6332464;22;20022;-72
2021/11/27 01:47:39;;;;;;;9.63;7.60;;;;;;;2.60;87.99;99315.44;6306518;22;20401;-72
2021/11/27 01:50:06;;;;;;;2.55;2.45;;;;;;;2.55;87.67;99301.88;6332316;22;20068;-72
2021/11/27 01:52:33;;;;;;;2.92;2.83;;;;;;;2.60;87.52;99305.16;6331835;22;20025;-71
2021/11/27 01:54:59;;;;;;;4.85;4.43;;;;;;;2.61;87.63;99306.84;6333232;22;20069;-73
2021/11/27 01:57:25;;;;;;;3.67;3.28;;;;;;;2.57;87.69;99300.94;6305833;22;20014;-72
2021/11/27 01:59:51;;;;;;;10.15;6.60;;;;;;;2.62;87.62;99311.09;6306116;22;20017;-72
2021/11/27 02:02:17;;;;;;;1.55;1.55;;;;;;;2.54;87.48;99289.88;6331985;22;20021;-70
2021/11/27 02:04:43;;;;;;;1.23;1.23;;;;;;;2.60;87.67;99300.84;6331694;22;20023;-72
2021/11/27 02:07:09;;;;;;;0.88;0.88;;;;;;;2.62;87.56;99303.34;6305906;22;20062;-70
2021/11/27 02:09:36;;;;;;;3.63;3.33;;;;;;;2.60;87.38;99300.00;6331777;22;20023;-70
2021/11/27 02:12:07;;;;;;;1.80;1.67;;;;;;;2.57;87.44;99300.09;6331942;22;20026;-70
2021/11/27 02:14:34;;;;;;;5.22;4.32;;;;;;;2.59;87.41;99308.59;6332981;22;20019;-71
2021/11/27 02:17:05;;;;;;;;;;;;;;;2.60;87.38;99308.56;6306409;22;20019;-71
2021/11/27 02:19:32;;;;;;;6.13;5.53;;;;;;;2.57;87.20;99310.41;6305828;22;20036;-72
2021/11/27 02:21:58;;;;;;;0.80;0.80;;;;;;;2.59;87.19;99311.19;6305688;22;20060;-72
2021/11/27 02:24:28;;;;;;;3.90;3.67;;;;;;;2.58;87.70;99317.25;6305248;22;20457;-72
2021/11/27 02:26:55;;;;;;;5.75;5.15;;;;;;;2.57;87.68;99323.28;6332929;22;20018;-72
2021/11/27 02:29:27;;;;;;;7.95;6.32;;;;;;;2.51;87.39;99310.59;6332027;22;20065;-72
2021/11/27 02:31:55;;;;;;;3.58;2.85;;;;;;;2.55;87.14;99312.19;6306308;22;20432;-72
2021/11/27 02:34:22;;;;;;;3.92;3.65;;;;;;;2.56;87.23;99308.69;6331842;22;20022;-72
2021/11/27 02:37:00;;;;;;;6.35;3.90;;;;;;;2.54;87.03;99302.78;6331254;22;20046;-72
2021/11/27 02:39:26;;;;;;;5.22;4.30;;;;;;;2.59;87.19;99298.28;6308055;22;20019;-71
2021/11/27 02:41:55;;;;;;;1.25;1.25;;;;;;;2.56;86.88;99298.41;6331629;22;20015;-71
2021/11/27 02:44:26;;;;;;;1.73;1.63;;;;;;;2.55;87.44;99291.59;6331834;22;20475;-72
2021/11/27 02:46:53;;;;;;;9.30;7.88;;;;;;;2.58;87.17;99288.91;6331471;22;20076;-70
2021/11/27 02:49:18;;;;;;;6.28;3.05;;;;;;;2.54;87.09;99302.78;6305863;22;20026;-71
2021/11/27 02:51:45;;;;;;;12.98;5.78;;;;;;;2.51;87.21;99297.72;6332858;22;20014;-71
2021/11/27 02:54:11;;;;;;;1.33;1.33;;;;;;;2.53;87.35;99298.50;6333096;22;20015;-72
2021/11/27 02:56:37;;;;;;;2.25;2.05;;;;;;;2.53;86.87;99290.75;6332894;22;20559;-73
2021/11/27 02:59:12;;;;;;;2.70;2.50;;;;;;;2.52;87.10;99309.72;6331723;22;20015;-72
2021/11/27 03:01:39;;;;;;;4.00;3.67;;;;;;;2.54;86.95;99302.78;6305241;22;20053;-72
2021/11/27 03:04:05;;;;;;;14.98;8.75;;;;;;;2.53;87.08;99321.69;6331858;22;20025;-71
2021/11/27 03:06:33;;;;;;;1.67;1.65;;;;;;;2.54;87.19;99305.34;6330749;22;20169;-71
2021/11/27 03:09:00;;;;;;;1.58;1.58;;;;;;;2.51;86.71;99303.72;6333223;22;20019;-70
2021/11/27 03:11:27;;;;;;;2.28;2.17;;;;;;;2.53;87.16;99301.06;6331695;22;20364;-72
2021/11/27 03:13:54;;;;;;;2.45;2.40;;;;;;;2.55;86.69;99307.03;6331520;22;20019;-72
2021/11/27 03:16:25;;;;;;;1.52;1.52;;;;;;;2.53;86.50;99293.34;6305348;22;20073;-72
2021/11/27 03:18:52;;;;;;;2.65;2.55;;;;;;;2.56;86.73;99303.56;6305105;22;20530;-72
2021/11/27 03:21:18;;;;;;;2.42;2.33;;;;;;;2.52;86.59;99300.22;6305598;22;20409;-71
2021/11/27 03:23:45;;;;;;;4.70;2.58;;;;;;;2.56;86.60;99301.81;6332704;22;20516;-71
2021/11/27 03:26:11;;;;;;;1.80;1.67;;;;;;;2.56;86.07;99290.66;6305586;22;20026;-71
2021/11/27 03:28:37;;;;;;;1.73;1.38;;;;;;;2.56;86.49;99293.25;6332741;22;20018;-72
2021/11/27 03:31:03;;;;;;;2.58;2.47;;;;;;;2.59;85.90;99303.44;6333281;22;20084;-72
2021/11/27 03:33:30;;;;;;;1.13;1.13;;;;;;;2.55;85.95;99289.00;6305586;22;20082;-72
2021/11/27 03:35:57;;;;;;;3.53;2.72;;;;;;;2.56;85.84;99290.66;6305106;22;20069;-72
2021/11/27 03:38:24;;;;;;;1.00;1.00;;;;;;;2.56;86.04;99293.25;6332705;22;20133;-71
2021/11/27 03:40:51;;;;;;;1.15;1.15;;;;;;;2.53;86.01;99283.03;6305172;22;20018;-73
2021/11/27 03:43:17;;;;;;;2.47;2.40;;;;;;;2.55;86.08;99296.72;6305030;22;20093;-72
2021/11/27 03:45:44;;;;;;;2.15;2.10;;;;;;;2.55;86.33;99296.72;6332600;22;20014;-71
2021/11/27 03:48:15;;;;;;;1.40;1.40;;;;;;;2.53;86.33;99294.19;6332854;22;20026;-71
2021/11/27 03:51:16;;;;;;;4.28;1.80;;;;;;;2.55;85.89;99301.88;6312803;22;20014;-71
2021/11/27 03:53:43;;;;;;;1.90;1.90;;;;;;;2.53;86.04;99303.66;6304768;22;20018;-72
2021/11/27 03:56:13;;;;;;;2.17;2.08;;;;;;;2.51;86.11;99303.72;6331360;22;20485;-72
2021/11/27 03:58:44;;;;;;;2.95;2.15;;;;;;;2.45;86.24;99298.75;6334696;22;20038;-72
2021/11/27 04:01:12;;;;;;;0.75;0.75;;;;;;;2.44;86.27;99301.38;6334153;22;20019;-72
2021/11/27 04:03:39;;;;;;;3.53;3.40;;;;;;;2.47;86.18;99301.28;6331400;22;20018;-73
2021/11/27 04:06:05;;;;;;;3.08;2.85;;;;;;;2.48;86.19;99296.09;6333835;22;20026;-72
2021/11/27 04:08:32;;;;;;;2.35;2.25;;;;;;;2.48;86.16;99295.22;6331866;22;20656;-72
2021/11/27 04:10:59;;;;;;;1.00;1.00;;;;;;;2.48;86.37;99296.09;6331964;22;20036;-72
2021/11/27 04:13:25;;;;;;;2.13;2.05;;;;;;;2.50;85.87;99288.28;6305166;22;20011;-71
2021/11/27 04:15:52;;;;;;;1.70;1.70;;;;;;;2.51;86.27;99295.13;6330659;22;20018;-72
2021/11/27 04:18:18;;;;;;;2.17;2.05;;;;;;;2.49;85.80;99302.91;6332636;22;20011;-72
2021/11/27 04:20:44;;;;;;;2.85;2.75;;;;;;;2.47;85.55;99299.53;6330968;22;20045;-72
2021/11/27 04:23:11;;;;;;;2.80;2.47;;;;;;;2.45;85.53;99297.91;6331244;22;20018;-70
2021/11/27 04:25:37;;;;;;;5.10;4.70;;;;;;;2.50;86.02;99293.44;6330986;22;20487;-71
2021/11/27 04:28:03;;;;;;;1.83;1.73;;;;;;;2.49;85.72;99302.91;6331132;22;20019;-70
2021/11/27 04:30:30;;;;;;;1.33;1.33;;;;;;;2.47;85.39;99289.22;6331207;22;20014;-71
2021/11/27 04:32:56;;;;;;;2.53;2.42;;;;;;;2.50;85.76;99293.44;6330551;22;20021;-71
2021/11/27 04:35:29;;;;;;;6.53;4.57;;;;;;;2.49;86.04;99296.91;6331096;22;20071;-73
2021/11/27 04:37:55;;;;;;;2.83;2.63;;;;;;;2.45;85.47;99290.19;6330585;22;20017;-71
2021/11/27 04:40:22;;;;;;;2.47;2.08;;;;;;;2.47;85.39;99299.53;6331206;22;20019;-73
2021/11/27 04:42:49;;;;;;;3.78;3.47;;;;;;;2.50;85.14;99296.88;6330564;22;20019;-71
2021/11/27 04:45:15;;;;;;;4.75;4.43;;;;;;;2.52;85.39;99317.44;6304720;22;20026;-73
2021/11/27 04:47:45;;;;;;;3.95;3.65;;;;;;;2.49;85.46;99308.06;6330218;22;20023;-73
2021/11/27 04:50:14;;;;;;;6.65;3.30;;;;;;;2.48;85.45;99302.97;6332433;22;20023;-72
2021/11/27 04:52:40;;;;;;;2.40;2.30;;;;;;;2.48;85.49;99305.53;6332342;22;20019;-72
2021/11/27 04:55:06;;;;;;;5.13;4.63;;;;;;;2.51;85.39;99310.59;6332416;22;20018;-72
2021/11/27 04:57:34;;;;;;;1.63;1.63;;;;;;;2.53;85.25;99306.22;6306449;22;20022;-74
2021/11/27 05:00:01;;;;;;;3.38;3.17;;;;;;;2.50;85.20;99304.59;6333944;22;20046;-72
2021/11/27 05:02:26;;;;;;;1.20;1.20;;;;;;;2.49;85.29;99296.91;6332316;22;20015;-72
2021/11/27 05:04:52;;;;;;;3.75;2.90;;;;;;;2.48;85.35;99301.22;6332353;22;20080;-71
2021/11/27 05:07:19;;;;;;;1.73;1.73;;;;;;;2.44;85.02;99278.19;6332308;22;20414;-72
2021/11/27 05:09:45;;;;;;;1.98;1.92;;;;;;;2.49;84.76;99296.91;6331602;22;20041;-73
2021/11/27 05:12:11;;;;;;;1.80;1.70;;;;;;;2.48;85.32;99305.53;6333420;22;20025;-73
2021/11/27 05:14:37;;;;;;;1.60;1.60;;;;;;;2.46;85.37;99309.88;6331982;22;20093;-73
2021/11/27 05:17:04;;;;;;;1.52;1.52;;;;;;;2.46;85.06;99308.16;6332101;22;20014;-72
2021/11/27 05:19:30;;;;;;;0.85;0.85;;;;;;;2.47;84.61;99303.84;6332223;22;20098;-73
2021/11/27 05:22:01;;;;;;;2.47;2.25;;;;;;;2.48;84.68;99305.53;6333078;22;20019;-72
2021/11/27 05:24:27;;;;;;;10.35;6.10;;;;;;;2.49;84.99;99304.63;6333123;22;20092;-72
2021/11/27 05:27:06;;;;;;;3.38;3.13;;;;;;;2.44;84.18;99303.94;6332875;22;20113;-71
2021/11/27 05:29:51;;;;;;;2.92;2.72;;;;;;;2.48;84.21;99315.84;6331948;22;20102;-72
2021/11/27 05:35:29;;;;;;;1.17;1.17;;;;;;;2.41;83.99;99299.72;6312612;22;20451;-73
2021/11/27 05:37:55;;;;;;;1.77;1.77;;;;;;;2.47;84.06;99307.25;6331284;22;20026;-74
2021/11/27 05:40:22;;;;;;;1.40;1.40;;;;;;;2.47;84.11;99309.00;6306692;22;20068;-73
2021/11/27 05:42:48;;;;;;;2.47;2.38;;;;;;;2.49;83.82;99312.34;6333550;22;20022;-74
2021/11/27 05:45:14;;;;;;;2.63;2.50;;;;;;;2.52;82.87;99312.28;6306371;22;20026;-75
2021/11/27 05:47:43;;;;;;;7.18;4.63;;;;;;;2.51;83.10;99306.28;6331907;22;20359;-74
2021/11/27 05:50:13;;;;;;;1.65;1.65;;;;;;;2.51;83.02;99306.28;6331947;22;20019;-74
2021/11/27 05:52:40;;;;;;;1.08;1.08;;;;;;;2.47;82.94;99293.53;6332089;22;20041;-74
2021/11/27 05:55:07;;;;;;;1.15;1.15;;;;;;;2.46;83.15;99297.84;6306124;22;20482;-72
2021/11/27 05:57:33;;;;;;;2.65;2.40;;;;;;;2.46;82.85;99308.16;6332055;22;20022;-73
2021/11/27 05:59:59;;;;;;;5.97;5.32;;;;;;;2.47;82.95;99319.28;6331903;22;20093;-73
2021/11/27 06:02:25;;;;;;;0.70;0.70;;;;;;;2.50;83.02;99319.19;6332146;22;20018;-74
2021/11/27 06:04:51;;;;;;;4.43;1.70;;;;;;;2.50;82.81;99288.28;6333281;22;20045;-74
2021/11/27 06:07:17;;;;;;;1.17;1.15;;;;;;;2.49;82.55;99287.44;6333499;22;20018;-74
2021/11/27 06:09:43;;;;;;;1.50;1.50;;;;;;;2.47;82.45;99290.97;6305836;22;20405;-74
2021/11/27 06:12:10;;;;;;;1.90;1.80;;;;;;;2.48;82.58;99306.38;6331831;22;20034;-75
2021/11/27 06:14:37;;;;;;;1.88;1.77;;;;;;;2.45;82.58;99291.03;6332060;22;20014;-75
2021/11/27 06:17:03;;;;;;;1.23;1.23;;;;;;;2.46;82.63;99308.16;6331731;22;20023;-74
2021/11/27 06:19:29;;;;;;;0.80;0.80;;;;;;;2.44;83.02;99304.78;6332158;22;20363;-74
2021/11/27 06:21:55;;;;;;;5.47;5.03;;;;;;;2.39;82.01;99310.97;6305884;22;20019;-74
2021/11/27 06:24:21;;;;;;;1.83;1.73;;;;;;;2.37;82.38;99302.44;6333546;22;20019;-75
2021/11/27 06:26:48;;;;;;;0.98;0.98;;;;;;;2.37;82.92;99292.13;6306125;22;20056;-74
2021/11/27 06:29:14;;;;;;;2.15;2.05;;;;;;;2.32;82.08;99310.31;6309038;22;20046;-74
2021/11/27 06:31:42;;;;;;;1.25;1.25;;;;;;;2.31;82.02;99302.63;6333784;22;20468;-72
2021/11/27 06:34:08;;;;;;;1.20;1.20;;;;;;;2.28;82.47;99298.41;6326349;22;20507;-73
2021/11/27 06:36:35;;;;;;;1.08;1.08;;;;;;;2.27;82.39;99294.16;6330353;22;20084;-73
2021/11/27 06:39:01;;;;;;;2.30;2.10;;;;;;;2.25;81.89;99302.81;6331739;22;20018;-73
2021/11/27 06:41:28;;;;;;;1.88;1.77;;;;;;;2.23;80.82;99283.97;6306453;22;20015;-75
2021/11/27 06:44:20;;;;;;;1.63;1.63;;;;;;;2.20;81.44;99295.22;6332325;22;20077;-74
2021/11/27 06:46:46;;;;;;;1.23;1.23;;;;;;;2.25;81.48;99288.22;6331998;22;20076;-73
2021/11/27 06:49:14;;;;;;;2.15;1.95;;;;;;;2.25;81.26;99279.66;6330950;22;20545;-74
2021/11/27 06:51:41;;;;;;;2.25;2.15;;;;;;;2.24;81.09;99283.09;6331958;22;20049;-75
2021/11/27 06:54:08;;;;;;;2.40;2.30;;;;;;;2.22;80.25;99272.03;6304344;22;20015;-74
2021/11/27 06:56:34;;;;;;;0.82;0.82;;;;;;;2.22;80.22;99274.59;6330847;22;20032;-72
2021/11/27 06:59:01;;;;;;;1.48;1.35;;;;;;;2.21;80.25;99275.47;6332349;22;20019;-74
2021/11/27 07:01:49;;;;;;;1.63;1.63;;;;;;;2.18;79.88;99262.69;6268558;22;20022;-73
2021/11/27 07:04:39;;;;;;;2.22;2.13;;;;;;;2.14;79.60;99263.66;6239378;22;20030;-74
2021/11/27 07:07:32;;;;;;;3.65;2.50;;;;;;;2.09;79.34;99261.25;6309190;22;20025;-74
2021/11/27 07:10:17;;;;;;;1.25;1.25;;;;;;;2.11;79.54;99259.47;6309850;22;20014;-74
2021/11/27 07:12:51;;;;;;;2.80;2.70;;;;;;;2.12;79.54;99283.47;6331799;22;20064;-76
2021/11/27 07:15:23;;;;;;;0.85;0.85;;;;;;;2.12;79.46;99275.75;6283590;22;20054;-75
2021/11/27 07:17:54;;;;;;;1.15;1.15;;;;;;;2.09;79.33;99272.38;6333231;22;20037;-76
2021/11/27 07:20:25;;;;;;;3.60;3.30;;;;;;;2.06;78.45;99259.59;6306481;22;20023;-75
2021/11/27 07:22:53;;;;;;;3.75;2.17;;;;;;;2.04;79.01;99266.53;6332873;22;20249;-75
2021/11/27 07:25:21;;;;;;;2.50;2.28;;;;;;;2.06;78.66;99281.94;6280763;22;20094;-73
2021/11/27 07:28:09;;;;;;;7.95;6.57;;;;;;;1.95;78.70;99265.97;6330472;22;20057;-74
2021/11/27 07:30:36;;;;;;;3.22;3.03;;;;;;;1.95;78.14;99271.97;6332921;22;20097;-75
2021/11/27 07:33:03;;;;;;;2.47;2.38;;;;;;;1.92;78.92;99264.34;6303650;22;20045;-76
2021/11/27 07:35:30;;;;;;;2.08;1.98;;;;;;;1.82;78.95;99236.34;6330937;22;20029;-75
2021/11/27 07:37:58;;;;;;;5.90;5.03;;;;;;;1.65;79.10;99202.53;6331708;22;20398;-76
2021/11/27 07:40:29;;;;;;;2.85;2.22;;;;;;;1.80;79.12;99244.09;6307417;22;20353;-78
2021/11/27 07:43:05;;;;;;;1.92;1.83;;;;;;;1.86;79.05;99233.63;6305225;22;20014;-76
2021/11/27 07:45:50;;;;;;;0.73;0.73;;;;;;;1.89;79.36;99232.69;6334448;22;20018;-76
2021/11/27 07:48:40;;;;;;;2.25;2.15;;;;;;;1.73;79.49;99214.31;6311080;22;20031;-76
2021/11/27 07:51:42;;;;;;;3.78;2.13;;;;;;;1.85;79.78;99216.50;6333666;22;20027;-78
2021/11/27 07:54:09;;;;;;;1.83;1.77;;;;;;;1.85;79.75;99225.94;6333330;22;20378;-73
2021/11/27 07:56:35;;;;;;;1.42;1.42;;;;;;;1.78;79.50;99225.28;6330730;22;20022;-74
2021/11/27 07:59:02;;;;;;;11.63;6.68;;;;;;;1.78;79.46;99211.56;6330970;22;20019;-75
2021/11/27 08:01:32;;;;;;;5.57;2.25;;;;;;;1.77;79.79;99207.31;6304108;22;20029;-72
2021/11/27 08:04:00;;;;;;;2.70;2.60;;;;;;;1.80;79.38;99202.09;6278822;22;20021;-74
2021/11/27 08:06:26;;;;;;;2.92;1.45;;;;;;;1.79;79.71;99193.53;6333706;22;20030;-74
2021/11/27 08:08:52;;;;;;;1.05;1.05;;;;;;;1.82;79.52;99196.00;6333035;22;20462;-74
2021/11/27 08:11:19;;;;;;;2.65;2.55;;;;;;;1.77;79.41;99181.59;6331806;22;20015;-73
2021/11/27 08:13:47;;;;;;;1.80;1.75;;;;;;;1.74;79.63;99167.09;6326753;22;20026;-73
2021/11/27 08:16:16;;;;;;;1.08;1.08;;;;;;;1.75;80.01;99158.50;6302770;22;20089;-72
2021/11/27 08:18:44;;;;;;;3.45;3.22;;;;;;;1.65;80.13;99145.94;6330190;22;20042;-72
2021/11/27 08:21:11;;;;;;;1.48;1.48;;;;;;;1.66;80.32;99156.22;6328524;22;20015;-73
2021/11/27 08:23:37;;;;;;;3.53;3.38;;;;;;;1.67;80.31;99134.72;6330421;22;20091;-74
2021/11/27 08:26:12;;;;;;;2.30;1.90;;;;;;;1.71;80.10;99161.19;6332157;22;20422;-74
2021/11/27 08:28:47;;;;;;;2.40;2.30;;;;;;;1.72;80.06;99157.75;6307516;22;20022;-74
2021/11/27 08:31:14;;;;;;;1.58;1.48;;;;;;;1.73;80.04;99164.59;6331494;22;20045;-73
2021/11/27 08:33:40;;;;;;;2.50;2.40;;;;;;;1.71;79.92;99167.19;6331768;22;20076;-74
2021/11/27 08:36:06;;;;;;;0.80;0.80;;;;;;;1.72;80.36;99168.03;6333746;22;20488;-73
2021/11/27 08:38:32;;;;;;;1.38;1.38;;;;;;;1.73;79.71;99151.72;6333382;22;20019;-73
2021/11/27 08:40:58;;;;;;;0.57;0.57;;;;;;;1.69;80.17;99145.81;6331868;22;20018;-73
2021/11/27 08:43:24;;;;;;;2.92;2.70;;;;;;;1.68;79.95;99135.56;6333235;22;20010;-72
2021/11/27 08:45:51;;;;;;;0.93;0.93;;;;;;;1.72;79.98;99144.88;6333434;22;20473;-72
2021/11/27 08:48:17;;;;;;;2.05;1.73;;;;;;;1.69;80.15;99132.13;6305530;22;20454;-72
2021/11/27 08:50:43;;;;;;;1.67;1.60;;;;;;;1.72;80.16;99138.00;6333094;22;20033;-72
2021/11/27 08:53:10;;;;;;;2.65;2.38;;;;;;;1.74;80.70;99131.06;6332889;22;20147;-72
2021/11/27 08:55:36;;;;;;;1.25;1.25;;;;;;;1.73;79.95;99154.28;6333710;22;20048;-72
2021/11/27 08:58:02;;;;;;;1.50;1.50;;;;;;;1.77;79.97;99141.25;6331635;22;20014;-72
2021/11/27 09:00:28;;;;;;;2.08;2.00;;;;;;;1.75;80.08;99122.47;6331380;22;20036;-73
2021/11/27 09:02:58;;;;;;;2.15;2.05;;;;;;;1.74;79.93;99105.34;6332989;22;20014;-74
2021/11/27 09:05:27;;;;;;;3.80;3.53;;;;;;;1.73;80.10;99108.00;6326750;22;20477;-73
2021/11/27 09:07:53;;;;;;;3.10;2.90;;;;;;;1.70;80.05;99139.81;6329614;22;20042;-72
2021/11/27 09:10:19;;;;;;;2.83;2.65;;;;;;;1.70;80.58;99129.50;6330322;22;20015;-72
2021/11/27 09:12:46;;;;;;;2.60;2.50;;;;;;;1.71;80.64;99120.88;6329276;22;20019;-72
2021/11/27 09:15:12;;;;;;;3.03;2.85;;;;;;;1.74;80.68;99110.50;6332142;22;20489;-73
2021/11/27 09:17:39;;;;;;;1.40;1.40;;;;;;;1.67;80.76;99088.41;6332927;22;20025;-72
2021/11/27 09:20:06;;;;;;;3.00;2.83;;;;;;;1.78;80.48;99114.66;6306162;22;20105;-71
2021/11/27 09:22:32;;;;;;;2.53;2.42;;;;;;;1.73;80.67;99093.41;6331496;22;20014;-72
2021/11/27 09:24:58;;;;;;;1.95;1.85;;;;;;;1.72;80.65;99084.00;6331855;22;20018;-72
2021/11/27 09:27:25;;;;;;;3.67;3.47;;;;;;;1.70;80.99;99047.19;6332449;22;20449;-72
2021/11/27 09:30:23;;;;;;;3.70;3.50;;;;;;;1.69;80.95;99066.09;6330947;22;20035;-74
2021/11/27 09:33:00;;;;;;;7.78;3.47;;;;;;;1.73;80.96;99062.53;6303075;22;20130;-72
2021/11/27 09:35:27;;;;;;;3.90;3.60;;;;;;;1.76;81.18;99054.72;6277850;22;20478;-72
2021/11/27 09:37:59;;;;;;;6.35;5.43;;;;;;;1.74;81.18;99053.91;6331009;22;20029;-73
2021/11/27 09:40:44;;;;;;;4.03;3.83;;;;;;;1.71;81.12;99038.56;6333769;22;20014;-73
2021/11/27 09:43:12;;;;;;;5.18;4.80;;;;;;;1.75;81.20;99039.31;6331889;22;20057;-72
2021/11/27 09:45:39;;;;;;;1.67;1.67;;;;;;;1.79;81.13;99049.47;6279071;22;20019;-72
2021/11/27 09:48:05;;;;;;;4.43;2.95;;;;;;;1.73;81.41;99047.09;6329699;22;20075;-72
2021/11/27 09:50:32;;;;;;;8.52;6.57;;;;;;;1.68;81.38;99002.66;6302645;22;20015;-72
2021/11/27 09:52:58;;;;;;;1.20;1.20;;;;;;;1.66;81.80;99035.31;6302987;22;20018;-72
2021/11/27 09:55:24;;;;;;;6.03;5.50;;;;;;;1.56;81.97;99023.63;6329638;22;20015;-71
2021/11/27 09:57:50;;;;;;;2.70;2.60;;;;;;;1.59;82.03;98997.81;6329507;22;20049;-73
2021/11/27 10:00:18;;;;;;;4.53;4.15;;;;;;;1.59;82.04;99013.25;6329727;22;20127;-72
2021/11/27 10:02:44;;;;;;;4.97;4.68;;;;;;;1.60;81.93;98978.94;6332577;22;20063;-71
2021/11/27 10:05:13;;;;;;;7.25;5.78;;;;;;;1.58;82.10;98963.53;6330262;22;20045;-72
2021/11/27 10:07:40;;;;;;;2.63;2.53;;;;;;;1.61;82.36;98983.16;6331759;22;20486;-72
2021/11/27 10:10:07;;;;;;;4.53;4.22;;;;;;;1.58;82.48;98954.97;6329654;22;20060;-71
2021/11/27 10:12:33;;;;;;;1.13;1.13;;;;;;;1.58;82.35;98972.97;6305646;22;20023;-72
2021/11/27 10:15:00;;;;;;;4.47;4.15;;;;;;;1.60;82.33;98986.66;6332591;22;20014;-72
2021/11/27 10:17:29;;;;;;;5.82;4.72;;;;;;;1.57;81.99;98945.59;6333361;22;20041;-72
2021/11/27 10:19:58;;;;;;;7.38;6.65;;;;;;;1.58;82.41;98975.56;6330742;22;20072;-72
2021/11/27 10:22:37;;;;;;;2.88;2.78;;;;;;;1.57;82.50;98976.47;6332527;22;20026;-72
2021/11/27 10:25:30;;;;;;;8.32;7.20;;;;;;;1.49;82.58;98924.44;6330879;22;20026;-72
2021/11/27 10:28:10;;;;;;;5.55;5.15;;;;;;;1.51;82.85;98961.22;6323773;22;20057;-72
2021/11/27 10:30:44;;;;;;;4.35;4.07;;;;;;;1.48;82.77;98938.19;6332642;22;20023;-72
2021/11/27 10:33:11;;;;;;;4.18;3.92;;;;;;;1.47;83.06;98967.38;6330650;22;20496;-72
2021/11/27 10:36:13;;;;;;;5.57;5.28;;;;;;;1.47;83.19;98959.66;6331058;22;20072;-70
2021/11/27 10:38:44;;;;;;;2.35;2.20;;;;;;;1.46;83.22;98970.81;6328865;22;20046;-71
2021/11/27 10:41:19;;;;;;;3.80;3.60;;;;;;;1.43;83.30;98955.50;6332469;22;20026;-73
2021/11/27 10:43:59;;;;;;;2.03;1.88;;;;;;;1.47;83.38;98957.91;6331347;22;20105;-72
2021/11/27 10:46:30;;;;;;;1.75;1.70;;;;;;;1.48;83.46;98962.16;6331929;22;20011;-71
2021/11/27 10:48:56;;;;;;;3.55;3.28;;;;;;;1.46;83.31;98937.41;6334401;22;20042;-74
2021/11/27 10:51:22;;;;;;;2.92;2.75;;;;;;;1.46;83.77;98939.97;6334820;22;20014;-74
2021/11/27 10:54:00;;;;;;;3.40;3.20;;;;;;;1.40;83.45;98922.19;6333440;22;20015;-72
2021/11/27 10:56:44;;;;;;;1.80;1.73;;;;;;;1.38;83.42;98944.50;6330542;22;20018;-72
2021/11/27 10:59:10;;;;;;;4.00;3.75;;;;;;;1.38;83.46;98950.50;6279285;22;20019;-73
2021/11/27 11:02:06;;;;;;;4.05;3.75;;;;;;;1.34;83.78;98945.53;6304962;22;20046;-72
2021/11/27 11:04:32;;;;;;;1.90;1.80;;;;;;;1.28;83.99;98937.97;6331839;22;20101;-72
2021/11/27 11:07:20;;;;;;;3.90;3.70;;;;;;;1.23;84.22;98947.59;6331975;22;20623;-72
2021/11/27 11:10:19;;;;;;;6.20;5.65;;;;;;;1.20;84.02;98922.81;6331774;22;20025;-73
2021/11/27 11:12:54;;;;;;;4.90;4.57;;;;;;;1.16;84.64;98920.41;6330710;22;20019;-72
2021/11/27 11:15:24;;;;;;;7.13;6.47;;;;;;;1.11;84.28;98906.88;6332145;22;20038;-72
2021/11/27 11:18:10;;;;;;;6.60;3.05;;;;;;;1.14;84.69;98901.63;6304107;22;20073;-73
2021/11/27 11:20:43;;;;;;;2.75;2.63;;;;;;;1.14;84.30;98870.78;6331436;22;20014;-72
2021/11/27 11:23:25;;;;;;;5.18;4.68;;;;;;;1.08;84.46;98896.69;6331006;22;20022;-72
2021/11/27 11:25:57;;;;;;;5.93;5.35;;;;;;;1.03;84.77;98889.97;6333658;22;20015;-74
2021/11/27 11:28:25;;;;;;;2.03;1.98;;;;;;;1.07;84.87;98900.13;6331510;22;20424;-72
2021/11/27 11:30:55;;;;;;;3.38;3.28;;;;;;;1.03;84.87;98892.53;6333795;22;20018;-72
2021/11/27 11:33:23;;;;;;;2.70;2.60;;;;;;;1.04;85.03;98899.34;6332958;22;20015;-72
2021/11/27 11:35:49;;;;;;;4.65;4.35;;;;;;;1.02;85.17;98897.69;6332341;22;20517;-72
2021/11/27 11:38:16;;;;;;;7.70;7.05;;;;;;;1.04;84.78;98863.38;6329802;22;20490;-72
2021/11/27 11:40:43;;;;;;;9.07;6.68;;;;;;;1.04;85.24;98891.66;6331186;22;20030;-72
2021/11/27 11:43:09;;;;;;;2.85;2.65;;;;;;;1.08;85.15;98894.13;6331749;22;20018;-73
2021/11/27 11:45:36;;;;;;;4.45;4.25;;;;;;;1.01;85.30;98873.72;6331855;22;20026;-74
2021/11/27 11:48:03;;;;;;;7.72;3.20;;;;;;;0.98;84.97;98878.16;6331274;22;20015;-73
2021/11/27 11:50:30;;;;;;;6.18;5.72;;;;;;;1.02;85.55;98856.59;6334883;22;20019;-77
2021/11/27 11:53:04;;;;;;;9.20;8.45;;;;;;;1.05;85.48;98856.50;6281865;22;20014;-79
2021/11/27 11:55:38;;;;;;;5.85;5.20;;;;;;;1.05;85.21;98870.19;6336287;22;20019;-75